Flight Track Log - Related Links

Times and Time Zones

All times are in EST time to prevent confusion due to time zone crossing. See the SWA4900 flight status page for this flight to view local times or setup timezone preferences in your user account.

Time Position Orientation Groundspeed Altitude Reporting Facility
EST Latitude Longitude Course Direction KTS MPH feet Rate Location/Type
Wed 06:52:52 PM 41.5722 -93.6936 314° West 180 207 2,900  Level Minneapolis Center
Wed 06:53:53 PM 41.6192 -93.7619 313° West 260 299 5,700 2,877 Climbing Minneapolis Center
Wed 06:54:05 PM 41.6233 -93.7772 290° West 245 282 6,400 3,738 Climbing Minneapolis Center
Wed 06:54:54 PM 41.6747 -93.7219 39° Northeast 295 339 9,500 3,290 Climbing Minneapolis Center
Wed 06:55:07 PM 41.6689 -93.7128 130° Southeast 286 329 9,800 480 Climbing Minneapolis Center
Wed 06:56:09 PM 41.6461 -93.5989 105° East 299 344 10,100 1,887 Climbing Minneapolis Center
Wed 06:57:11 PM 41.6236 -93.4772 104° East 320 368 13,700 3,339 Climbing Minneapolis Center
Wed 06:58:13 PM 41.6022 -93.3547 103° East 334 384 17,000 3,048 Climbing Minneapolis Center
Wed 06:59:15 PM 41.5750 -93.2197 105° East 362 417 20,000 2,903 Climbing Minneapolis Center
Wed 07:00:17 PM 41.5428 -93.0492 104° East 388 447 23,000 2,160 Climbing Minneapolis Center
Wed 07:01:20 PM 41.5156 -92.9053 104° East 398 458 24,500 1,920 Climbing Minneapolis Center
Wed 07:02:22 PM 41.4858 -92.7600 105° East 402 463 27,000 2,129 Climbing Minneapolis Center
Wed 07:03:24 PM 41.4569 -92.6083 104° East 410 472 28,900 968 Climbing Minneapolis Center
Wed 07:04:26 PM 41.4250 -92.4508 105° East 422 486 29,000 45 Climbing Minneapolis Center
Wed 07:05:36 PM 41.3881 -92.2575 104° East 446 513 29,000  Level Chicago Center
Wed 07:06:38 PM 41.3558 -92.1033 106° East 441 507 29,000  Level Chicago Center
Wed 07:07:40 PM 41.3183 -91.9156 105° East 441 507 29,000  Level Chicago Center
Wed 07:08:42 PM 41.2864 -91.7608 105° East 440 506 29,000  Level Chicago Center
Wed 07:09:44 PM 41.2536 -91.6056 106° East 440 506 29,000  Level Chicago Center
Wed 07:10:46 PM 41.2183 -91.4353 105° East 444 511 29,000  Level Chicago Center
Wed 07:11:48 PM 41.1850 -91.2781 106° East 442 509 29,000  Level Chicago Center
Wed 07:12:50 PM 41.1519 -91.1197 105° East 445 512 29,000 -339 Level Chicago Center
Wed 07:13:52 PM 41.1181 -90.9639 106° East 442 509 28,300 -1,500 Descending Chicago Center
Wed 07:14:54 PM 41.0847 -90.8067 106° East 443 510 25,900 -1,597 Descending Chicago Center
Wed 07:15:56 PM 41.0686 -90.6556 98° East 423 487 25,000 -1,065 Descending Chicago Center
Wed 07:16:58 PM 41.0828 -90.4817 84° East 395 455 23,700 -1,113 Descending Chicago Center
Wed 07:18:00 PM 41.0939 -90.3392 84° East 391 450 22,700 -968 Descending Chicago Center
Wed 07:19:02 PM 41.1044 -90.1922 85° East 396 456 21,700 -823 Descending Chicago Center
Wed 07:20:04 PM 41.1167 -90.0436 84° East 402 463 21,000 -435 Descending Chicago Center
Wed 07:21:06 PM 41.1261 -89.8947 85° East 402 463 20,800 -1,306 Descending Chicago Center
Wed 07:22:08 PM 41.1367 -89.7481 84° East 399 459 18,300 -1,452 Descending Chicago Center
Wed 07:23:10 PM 41.1469 -89.6081 84° East 384 442 17,800 -194 Descending Chicago Center
Wed 07:24:12 PM 41.1553 -89.4658 86° East 385 443 17,900 -435 Climbing Chicago Center
Wed 07:25:14 PM 41.1667 -89.2972 85° East 382 440 16,900 -1,548 Descending Chicago Center
Wed 07:26:16 PM 41.1778 -89.1583 84° East 371 427 14,700 -2,177 Descending Chicago Center
Wed 07:27:18 PM 41.2275 -89.0467 59° Northeast 354 407 12,400 -2,177 Descending Chicago Center
Wed 07:28:20 PM 41.2769 -88.9381 59° Northeast 346 398 10,200 -1,258 Descending Chicago Center
Wed 07:29:22 PM 41.3053 -88.8269 71° East 324 373 9,800 -726 Descending Chicago Center
Wed 07:30:24 PM 41.3272 -88.7239 74° East 303 349 8,700 -1,306 Descending Chicago Center
Wed 07:31:26 PM 41.3550 -88.5986 74° East 296 341 7,100 -1,355 Descending Chicago Center
Wed 07:32:28 PM 41.3789 -88.4961 73° East 293 337 5,900 -581 Descending Chicago Center
Wed 07:33:30 PM 41.4286 -88.4178 50° Northeast 282 325 5,900  Level Chicago Center
Wed 07:34:32 PM 41.4775 -88.3378 51° Northeast 279 321 5,900 -435 Level Chicago Center
Wed 07:35:34 PM 41.5236 -88.2553 53° Northeast 277 319 5,000 -976 Descending Chicago Center
Wed 07:36:35 PM 41.5614 -88.1703 59° Northeast 269 310 3,900 -537 Descending Chicago Center
Wed 07:37:37 PM 41.6000 -88.0878 58° Northeast 262 302 3,900  Level Chicago Center
Wed 07:38:39 PM 41.6378 -88.0056 58° Northeast 260 299 3,900  Level Chicago Center
Wed 07:39:41 PM 41.6839 -87.9072 58° Northeast 259 298 3,900  Level Chicago Center
Wed 07:40:43 PM 41.7206 -87.8242 59° Northeast 259 298 3,900  Level Chicago Center
Wed 07:41:45 PM 41.7564 -87.7411 60° Northeast 257 296 3,900  Level Chicago Center
Wed 07:42:47 PM 41.7586 -87.6594 88° East 232 267 3,900  Level Chicago Center
Wed 07:43:49 PM 41.7606 -87.5769 88° East 224 258 3,900 -339 Level Chicago Center
Wed 07:44:51 PM 41.7719 -87.5025 78° East 227 261 3,200 -484 Descending Chicago Center
Wed 07:45:53 PM 41.8303 -87.5050 358° North 219 252 2,900 -387 Descending Chicago Center
Wed 07:46:55 PM 41.8489 -87.5769 289° West 188 216 2,400 -290 Descending Chicago Center
Wed 07:47:57 PM 41.8464 -87.6383 267° West 172 198 2,300 -242 Descending Chicago Center
Wed 07:48:59 PM 41.8283 -87.6831 242° Southwest 153 176 1,900 -585 Descending Chicago Center
Wed 07:50:00 PM 41.8097 -87.7206 236° Southwest 133 153 1,100 -439 Descending Chicago Center
Wed 07:51:02 PM 41.7883 -87.7556 231° Southwest 131 151 1,000 -97 Descending Chicago Center

Login

Don't have an account? Register now (free) for customized features, flight alerts, and more!